createdAt,value
2018-12-14T00:03:13.171Z,73.22
2018-12-14T00:08:06.451Z,73.51
2018-12-14T00:12:59.767Z,73.77
2018-12-14T00:17:53.045Z,73.21
2018-12-14T00:22:46.331Z,73.48
2018-12-14T00:43:53.379Z,73.62
2018-12-14T00:48:46.730Z,73.94
2018-12-14T00:53:40.096Z,74.43
2018-12-14T00:58:33.378Z,74.42
2018-12-14T01:03:26.674Z,73.82
2018-12-14T01:08:19.950Z,74.71
2018-12-14T01:13:13.235Z,73.61
2018-12-14T01:18:06.550Z,74.07
2018-12-14T01:22:59.826Z,74.13
2018-12-14T01:44:07.363Z,75.67
2018-12-14T01:49:00.640Z,75.36
2018-12-14T01:53:53.939Z,74.91
2018-12-14T01:58:47.251Z,75.84
2018-12-14T02:03:40.617Z,76.00
2018-12-14T02:08:33.899Z,75.89
2018-12-14T02:13:27.199Z,76.48
2018-12-14T02:18:20.525Z,76.24
2018-12-14T02:23:13.836Z,76.08
2018-12-14T02:44:21.747Z,75.19
2018-12-14T02:49:15.110Z,75.19
2018-12-14T02:54:08.416Z,75.76
2018-12-14T02:59:01.828Z,75.09
2018-12-14T03:03:55.115Z,74.72
2018-12-14T03:08:48.398Z,75.19
2018-12-14T03:13:41.827Z,74.12
2018-12-14T03:18:35.395Z,74.64
2018-12-14T03:23:28.710Z,74.72
2018-12-14T03:44:36.869Z,75.70
2018-12-14T03:49:30.157Z,75.88
2018-12-14T03:54:23.513Z,76.28
2018-12-14T03:59:16.814Z,75.68
2018-12-14T04:04:10.100Z,75.07
2018-12-14T04:09:04.669Z,75.62
2018-12-14T04:13:57.975Z,75.51
2018-12-14T04:18:51.268Z,75.10
2018-12-14T04:23:44.564Z,75.48
2018-12-14T04:44:52.218Z,75.74
2018-12-14T04:49:45.859Z,75.08
2018-12-14T04:54:39.145Z,75.41
2018-12-14T04:59:32.426Z,76.20
2018-12-14T05:04:25.733Z,75.46
2018-12-14T05:09:19.023Z,75.09
2018-12-14T05:14:12.324Z,75.05
2018-12-14T05:19:05.604Z,75.05
2018-12-14T05:23:58.958Z,75.09
2018-12-14T05:45:06.657Z,73.18
2018-12-14T05:49:59.939Z,73.86
2018-12-14T05:54:53.227Z,73.50
2018-12-14T05:59:46.530Z,73.51
2018-12-14T06:04:39.892Z,72.49
2018-12-14T06:09:33.197Z,72.47
2018-12-14T06:14:26.484Z,72.36
2018-12-14T06:19:19.829Z,71.99
2018-12-14T06:24:13.188Z,71.90
2018-12-14T06:45:21.133Z,71.58
2018-12-14T06:50:14.432Z,72.08
2018-12-14T06:55:07.798Z,71.90
2018-12-14T07:00:01.193Z,71.90
2018-12-14T07:04:54.483Z,71.60
2018-12-14T07:09:47.764Z,71.42
2018-12-14T07:14:41.059Z,71.17
2018-12-14T07:19:34.351Z,70.70
2018-12-14T07:24:28.082Z,71.28
2018-12-14T07:45:36.529Z,69.45
2018-12-14T07:50:30.135Z,68.99
2018-12-14T07:55:23.638Z,68.88
2018-12-14T08:00:17.314Z,67.39
2018-12-14T08:05:10.664Z,68.13
2018-12-14T08:10:05.047Z,68.13
2018-12-14T08:15:01.399Z,67.52
2018-12-14T08:19:54.789Z,68.37
2018-12-14T08:24:48.051Z,67.91
2018-12-14T08:45:58.607Z,67.93
2018-12-14T08:50:52.504Z,68.48
2018-12-14T08:55:46.437Z,69.14
2018-12-14T09:00:39.763Z,68.10
2018-12-14T09:05:33.362Z,68.15
2018-12-14T09:10:26.765Z,68.02
2018-12-14T09:15:25.932Z,68.96
2018-12-14T09:20:19.483Z,68.84
2018-12-14T09:25:15.351Z,67.48
2018-12-14T09:46:23.691Z,66.73
2018-12-14T09:51:17.148Z,65.89
2018-12-14T09:56:16.005Z,65.09
2018-12-14T10:01:12.328Z,65.43
2018-12-14T10:06:15.882Z,65.00
2018-12-14T10:11:13.136Z,64.53
2018-12-14T10:16:07.560Z,63.68
2018-12-14T10:21:03.690Z,63.93
2018-12-14T10:26:01.764Z,63.44
2018-12-14T10:47:09.307Z,62.41
2018-12-14T10:52:02.978Z,62.69
2018-12-14T10:56:56.293Z,61.57
2018-12-14T11:01:57.768Z,61.54
2018-12-14T11:06:51.189Z,60.62
2018-12-14T11:11:44.753Z,62.26
2018-12-14T11:16:39.051Z,61.26
2018-12-14T11:21:32.453Z,60.97
2018-12-14T11:26:34.474Z,60.12
2018-12-14T11:47:50.594Z,58.94
2018-12-14T11:52:46.105Z,59.25
2018-12-14T11:57:40.707Z,60.27
2018-12-14T12:02:42.888Z,60.29
2018-12-14T12:07:35.263Z,60.43
2018-12-14T12:12:38.201Z,60.38
2018-12-14T12:17:32.776Z,61.57
2018-12-14T12:22:27.055Z,61.08
2018-12-14T12:27:22.323Z,61.57
2018-12-14T12:48:37.112Z,63.23
2018-12-14T12:53:30.779Z,61.76
2018-12-14T12:58:24.080Z,62.93
2018-12-14T13:03:18.138Z,62.66
2018-12-14T13:08:11.482Z,63.42
2018-12-14T13:13:04.890Z,63.70
2018-12-14T13:17:58.206Z,64.03
2018-12-14T13:22:51.487Z,62.78
2018-12-14T13:27:44.784Z,63.55
2018-12-14T13:48:52.350Z,63.33
2018-12-14T13:53:46.890Z,63.43
2018-12-14T13:58:40.864Z,62.83
2018-12-14T14:03:34.743Z,61.75
2018-12-14T14:08:28.033Z,61.77
2018-12-14T14:13:21.617Z,62.04
2018-12-14T14:18:15.149Z,62.60
2018-12-14T14:23:08.519Z,63.32
2018-12-14T14:28:02.066Z,62.43
2018-12-14T14:32:55.695Z,62.14
2018-12-14T14:54:04.307Z,63.83
2018-12-14T14:58:57.609Z,64.26
2018-12-14T15:03:50.894Z,64.60
2018-12-14T15:08:44.369Z,63.81
2018-12-14T15:13:37.806Z,64.48
2018-12-14T15:34:45.500Z,64.39
2018-12-14T15:39:38.867Z,65.26
2018-12-14T15:44:32.293Z,63.96
2018-12-14T15:49:25.614Z,65.17
2018-12-14T15:54:18.895Z,65.00
2018-12-14T16:10:01.925Z,64.58
2018-12-14T16:14:55.242Z,64.40
2018-12-14T16:19:48.727Z,64.31
2018-12-14T16:24:42.106Z,64.67
2018-12-14T16:45:49.707Z,64.66
2018-12-14T16:50:42.992Z,65.04
2018-12-14T16:55:36.261Z,64.23
2018-12-14T17:00:29.657Z,63.90
2018-12-14T17:05:23.134Z,63.95
2018-12-14T17:10:16.522Z,64.74
2018-12-14T17:15:09.979Z,63.93
2018-12-14T17:20:03.512Z,63.89
2018-12-14T17:24:56.856Z,63.59
2018-12-14T17:46:04.707Z,65.10
2018-12-14T17:50:58.041Z,64.79
2018-12-14T17:55:51.325Z,65.21
2018-12-14T18:00:45.365Z,65.54
2018-12-14T18:05:38.967Z,65.15
2018-12-14T18:10:32.464Z,65.22
2018-12-14T18:15:25.884Z,64.59
2018-12-14T18:20:19.264Z,64.20
2018-12-14T18:25:12.842Z,65.26
2018-12-14T18:46:20.450Z,64.54
2018-12-14T18:51:13.792Z,64.63
2018-12-14T18:56:07.072Z,64.31
2018-12-14T19:01:00.361Z,63.84
2018-12-14T19:05:53.657Z,63.52
2018-12-14T19:10:47.871Z,64.37
2018-12-14T19:15:41.204Z,64.43
2018-12-14T19:20:34.485Z,63.36
2018-12-14T19:25:27.755Z,63.19
2018-12-14T19:46:34.855Z,63.35
2018-12-14T19:51:28.108Z,62.67
2018-12-14T19:56:21.394Z,62.79
2018-12-14T20:01:14.679Z,63.43
2018-12-14T20:06:07.998Z,63.41
2018-12-14T20:11:01.288Z,63.75
2018-12-14T20:15:57.561Z,64.06
2018-12-14T20:20:49.912Z,62.31
2018-12-14T20:25:43.195Z,62.98
2018-12-14T20:46:51.261Z,65.42
2018-12-14T20:51:44.568Z,65.33
2018-12-14T20:56:38.002Z,65.24
2018-12-14T21:01:31.341Z,65.83
2018-12-14T21:06:24.610Z,65.74
2018-12-14T21:11:17.962Z,64.80
2018-12-14T21:16:11.340Z,64.53
2018-12-14T21:21:04.704Z,64.42
2018-12-14T21:25:58.003Z,65.17
2018-12-14T21:47:05.546Z,64.37
2018-12-14T21:51:58.811Z,64.86
2018-12-14T21:56:52.105Z,64.13
2018-12-14T22:01:45.587Z,64.20
2018-12-14T22:06:38.887Z,63.93
2018-12-14T22:11:32.163Z,64.28
2018-12-14T22:16:25.464Z,64.63
2018-12-14T22:21:18.735Z,65.38
2018-12-14T22:26:12.124Z,65.01
2018-12-14T22:47:20.179Z,65.73
2018-12-14T22:52:13.490Z,65.61
2018-12-14T22:57:06.792Z,65.69
2018-12-14T23:02:00.073Z,65.00
2018-12-14T23:06:53.383Z,64.91
2018-12-14T23:11:46.651Z,64.55
2018-12-14T23:16:39.950Z,65.08
2018-12-14T23:21:33.383Z,65.61
2018-12-14T23:26:26.719Z,65.28
2018-12-14T23:47:34.288Z,64.69
2018-12-14T23:52:27.886Z,65.32
2018-12-14T23:57:21.186Z,65.35
